Time;durP1;ratioP1;P1;durP2;ratioP2;P2;SDS_P1;SDS_P2;PMS_P1;PMS_P2;Temp;Humidity;BMP_temperature;BMP_pressure;BME280_temperature;BME280_humidity;BME280_pressure;Samples;Min_cycle;Max_cycle;Signal;HPM_P1;HPM_P2
2021/11/28 00:02:21;;;;;;;10.20;5.10;;;3.00;99.90;;;;;;7390122;19;20328;-79
2021/11/28 00:04:51;;;;;;;5.97;4.80;;;3.10;99.90;;;;;;7385415;19;20376;-82
2021/11/28 00:07:28;;;;;;;6.55;5.20;;;3.10;99.90;;;;;;7387824;19;20338;-80
2021/11/28 00:10:09;;;;;;;5.53;5.00;;;3.00;99.90;;;;;;7386703;19;20316;-80
2021/11/28 00:15:08;;;;;;;5.18;4.63;;;3.00;99.90;;;;;;7387036;19;20333;-79
2021/11/28 00:17:34;;;;;;;5.57;4.97;;;3.00;99.90;;;;;;7391710;19;20790;-81
2021/11/28 00:20:02;;;;;;;6.68;5.82;;;3.00;99.90;;;;;;7387396;19;20316;-79
2021/11/28 00:22:28;;;;;;;7.10;6.05;;;3.00;99.90;;;;;;7388971;19;20425;-81
2021/11/28 00:24:54;;;;;;;6.18;5.43;;;3.00;99.90;;;;;;7389184;19;20324;-79
2021/11/28 00:27:20;;;;;;;6.23;5.20;;;3.00;99.90;;;;;;7385003;19;20345;-80
2021/11/28 00:29:46;;;;;;;7.97;6.30;;;3.00;99.90;;;;;;7390758;19;20382;-79
2021/11/28 00:32:12;;;;;;;7.30;6.50;;;2.90;99.90;;;;;;7390964;19;20863;-82
2021/11/28 00:34:38;;;;;;;8.77;6.60;;;2.90;99.90;;;;;;7385230;19;20689;-80
2021/11/28 00:37:03;;;;;;;8.73;6.73;;;2.90;99.90;;;;;;7389656;19;20319;-79
2021/11/28 00:39:30;;;;;;;6.60;5.93;;;2.80;99.90;;;;;;7385169;19;20466;-79
2021/11/28 00:41:57;;;;;;;7.15;6.32;;;2.80;99.90;;;;;;7388897;19;20321;-79
2021/11/28 00:44:23;;;;;;;6.70;5.80;;;2.80;99.90;;;;;;7389932;19;20307;-79
2021/11/28 00:46:48;;;;;;;5.57;5.07;;;2.70;99.90;;;;;;7390336;19;20316;-80
2021/11/28 00:49:16;;;;;;;5.73;5.17;;;2.70;99.90;;;;;;7387933;19;20325;-79
2021/11/28 00:54:13;;;;;;;6.43;5.65;;;2.70;99.90;;;;;;7393266;19;20360;-82
2021/11/28 00:56:40;;;;;;;5.70;4.88;;;2.70;99.90;;;;;;7392297;19;20305;-80
2021/11/28 00:59:06;;;;;;;6.30;4.43;;;2.70;99.90;;;;;;7390692;19;20304;-80
2021/11/28 01:01:35;;;;;;;5.40;4.60;;;2.70;99.90;;;;;;7381713;19;20376;-80
2021/11/28 01:04:02;;;;;;;5.03;4.63;;;2.60;99.90;;;;;;7390151;19;20363;-79
2021/11/28 01:06:28;;;;;;;6.00;5.20;;;2.60;99.90;;;;;;7370606;19;20323;-80
2021/11/28 01:08:55;;;;;;;4.63;4.22;;;2.60;99.90;;;;;;7388290;19;20304;-79
2021/11/28 01:11:24;;;;;;;4.20;3.80;;;2.60;99.90;;;;;;7386457;19;20328;-80
2021/11/28 01:13:51;;;;;;;3.60;3.30;;;2.60;99.90;;;;;;7388292;19;20333;-80
2021/11/28 01:16:19;;;;;;;4.37;3.80;;;2.70;99.90;;;;;;7385786;19;20321;-79
2021/11/28 01:18:47;;;;;;;5.07;4.60;;;2.70;99.90;;;;;;7387793;19;20330;-79
2021/11/28 01:21:13;;;;;;;4.25;3.92;;;2.70;99.90;;;;;;7384946;19;20308;-79
2021/11/28 01:23:39;;;;;;;4.53;4.13;;;2.70;99.90;;;;;;7387190;19;20791;-80
2021/11/28 01:26:07;;;;;;;5.07;4.55;;;2.70;99.90;;;;;;7386507;19;20320;-79
2021/11/28 01:28:33;;;;;;;4.93;4.43;;;2.70;99.90;;;;;;7382558;19;21171;-79
2021/11/28 01:30:59;;;;;;;5.70;4.05;;;2.70;99.90;;;;;;7386323;19;20308;-79
2021/11/28 01:33:25;;;;;;;5.50;4.97;;;2.70;99.90;;;;;;7386934;19;20404;-80
2021/11/28 01:35:51;;;;;;;7.30;5.28;;;2.60;99.90;;;;;;7383883;19;20324;-80
2021/11/28 01:38:19;;;;;;;5.27;4.87;;;2.60;99.90;;;;;;7386299;19;20324;-79
2021/11/28 01:40:46;;;;;;;4.85;4.35;;;2.50;99.90;;;;;;7385070;19;20352;-80
2021/11/28 01:43:13;;;;;;;6.88;5.47;;;2.50;99.90;;;;;;7385792;19;20326;-79
2021/11/28 01:45:39;;;;;;;5.80;4.97;;;2.50;99.90;;;;;;7388564;19;20320;-80
2021/11/28 01:48:07;;;;;;;6.72;5.18;;;2.60;99.90;;;;;;7386924;19;20368;-78
2021/11/28 01:50:33;;;;;;;6.68;5.40;;;2.30;99.90;;;;;;7387230;19;20939;-79
2021/11/28 01:53:00;;;;;;;6.00;5.40;;;2.30;99.90;;;;;;7366055;19;20325;-79
2021/11/28 01:55:27;;;;;;;5.35;4.82;;;2.20;99.90;;;;;;7386212;19;20657;-79
2021/11/28 01:57:53;;;;;;;5.22;4.72;;;2.30;99.90;;;;;;7386353;19;20329;-80
2021/11/28 02:00:22;;;;;;;5.53;5.00;;;2.30;99.90;;;;;;7386311;19;20312;-79
2021/11/28 02:02:49;;;;;;;6.57;5.38;;;2.30;99.90;;;;;;7386513;19;20718;-78
2021/11/28 02:05:16;;;;;;;5.63;5.13;;;2.30;99.90;;;;;;7384793;19;20320;-79
2021/11/28 02:07:42;;;;;;;5.37;4.87;;;2.30;99.90;;;;;;7399054;19;20313;-78
2021/11/28 02:10:09;;;;;;;5.60;5.10;;;2.30;99.90;;;;;;7393244;19;20316;-79
2021/11/28 02:12:36;;;;;;;5.45;4.95;;;2.30;99.90;;;;;;7392257;19;20349;-80
2021/11/28 02:15:02;;;;;;;6.00;5.40;;;2.30;99.90;;;;;;7390442;19;20649;-80
2021/11/28 02:17:28;;;;;;;5.40;4.90;;;2.30;99.90;;;;;;7388419;19;20329;-80
2021/11/28 02:19:54;;;;;;;5.50;5.00;;;2.30;99.90;;;;;;7389078;19;20305;-79
2021/11/28 02:22:20;;;;;;;5.45;4.97;;;2.30;99.90;;;;;;7388065;19;20313;-79
2021/11/28 02:24:46;;;;;;;5.93;5.33;;;2.30;99.90;;;;;;7386866;19;20843;-78
2021/11/28 02:27:12;;;;;;;5.22;4.72;;;2.30;99.90;;;;;;7388027;19;20319;-79
2021/11/28 02:29:42;;;;;;;4.83;4.43;;;2.30;99.90;;;;;;7384789;19;20348;-79
2021/11/28 02:32:08;;;;;;;5.43;4.53;;;2.30;99.90;;;;;;7383947;19;20328;-79
2021/11/28 02:34:34;;;;;;;5.03;4.63;;;2.20;99.90;;;;;;7386888;19;20308;-79
2021/11/28 02:37:00;;;;;;;4.97;4.47;;;2.30;99.90;;;;;;7384669;19;21052;-80
2021/11/28 02:39:26;;;;;;;5.22;4.72;;;2.30;99.90;;;;;;7381617;19;20400;-80
2021/11/28 02:41:53;;;;;;;4.82;4.43;;;2.30;99.90;;;;;;7384849;19;20320;-79
2021/11/28 02:44:19;;;;;;;5.03;4.43;;;2.30;99.90;;;;;;7382916;19;20331;-79
2021/11/28 02:46:46;;;;;;;4.88;4.38;;;2.30;99.90;;;;;;7382733;19;20320;-80
2021/11/28 02:49:12;;;;;;;5.00;4.60;;;2.30;99.90;;;;;;7384040;19;20319;-80
2021/11/28 02:51:38;;;;;;;4.20;3.90;;;2.30;99.90;;;;;;7383801;19;20321;-79
2021/11/28 02:54:05;;;;;;;5.13;4.70;;;2.30;99.90;;;;;;7382643;19;20324;-79
2021/11/28 02:56:31;;;;;;;5.17;4.67;;;2.30;99.90;;;;;;7385438;19;20320;-81
2021/11/28 02:58:56;;;;;;;5.80;5.00;;;2.30;99.90;;;;;;7382133;19;20400;-80
2021/11/28 03:01:22;;;;;;;6.57;5.28;;;2.30;99.90;;;;;;7381335;19;20488;-79
2021/11/28 03:04:08;;;;;;;5.63;5.10;;;2.30;99.90;;;;;;7276732;19;2004271;-79
2021/11/28 03:06:34;;;;;;;6.20;5.60;;;2.20;99.90;;;;;;7385074;19;20865;-78
2021/11/28 03:08:59;;;;;;;4.83;4.43;;;2.10;99.90;;;;;;7384888;19;20316;-80
2021/11/28 03:11:25;;;;;;;5.10;4.60;;;2.10;99.90;;;;;;7379985;19;20336;-79
2021/11/28 03:13:52;;;;;;;4.40;4.00;;;2.10;99.90;;;;;;7384595;19;20339;-80
2021/11/28 03:16:19;;;;;;;4.75;4.25;;;2.10;99.90;;;;;;7362791;19;20317;-79
2021/11/28 03:18:45;;;;;;;5.28;4.85;;;2.00;99.90;;;;;;7390007;19;20808;-80
2021/11/28 03:21:21;;;;;;;5.40;4.30;;;2.00;99.90;;;;;;7404842;19;20396;-80
2021/11/28 03:23:47;;;;;;;5.20;4.45;;;2.00;99.90;;;;;;7394540;19;20335;-79
2021/11/28 03:26:14;;;;;;;4.50;4.10;;;1.90;99.90;;;;;;7389937;19;20304;-79
2021/11/28 03:28:46;;;;;;;5.28;4.35;;;1.90;99.90;;;;;;7388429;19;20307;-79
2021/11/28 03:31:14;;;;;;;4.25;3.78;;;1.90;99.90;;;;;;7283030;19;2004556;-82
2021/11/28 03:33:52;;;;;;;4.40;4.00;;;1.80;99.90;;;;;;7284504;19;2004609;-80
2021/11/28 03:36:27;;;;;;;3.58;3.30;;;1.70;99.90;;;;;;7392011;19;20288;-78
2021/11/28 03:38:56;;;;;;;4.40;4.00;;;1.70;99.90;;;;;;7389968;19;20328;-80
2021/11/28 03:41:22;;;;;;;3.60;3.30;;;1.60;99.90;;;;;;7389991;19;20325;-80
2021/11/28 03:43:50;;;;;;;3.90;3.60;;;1.70;99.90;;;;;;7391890;19;20333;-79
2021/11/28 03:46:15;;;;;;;3.88;3.58;;;1.60;99.90;;;;;;7390353;19;20317;-79
2021/11/28 03:48:41;;;;;;;4.15;3.85;;;1.60;99.90;;;;;;7391792;19;20308;-80
2021/11/28 03:51:14;;;;;;;4.87;4.33;;;1.50;99.90;;;;;;7387323;19;20951;-79
2021/11/28 03:53:39;;;;;;;4.47;4.07;;;1.30;99.90;;;;;;7390506;19;20313;-82
2021/11/28 03:56:07;;;;;;;4.72;4.15;;;1.30;99.90;;;;;;7388531;19;20862;-80
2021/11/28 03:58:32;;;;;;;4.13;3.75;;;1.20;99.90;;;;;;7391583;19;20373;-80
2021/11/28 04:00:59;;;;;;;4.35;3.95;;;1.20;99.90;;;;;;7387763;19;20325;-79
2021/11/28 04:03:26;;;;;;;4.65;4.13;;;1.20;99.90;;;;;;7391716;19;20918;-79
2021/11/28 04:05:53;;;;;;;4.32;3.97;;;1.20;99.90;;;;;;7391602;19;20321;-83
2021/11/28 04:08:20;;;;;;;4.10;3.80;;;1.20;99.90;;;;;;7396333;19;20364;-79
2021/11/28 04:10:46;;;;;;;4.95;4.45;;;1.10;99.90;;;;;;7391274;19;20305;-78
2021/11/28 04:13:12;;;;;;;5.97;4.27;;;1.10;99.90;;;;;;7393028;19;20317;-79
2021/11/28 04:15:38;;;;;;;4.65;4.25;;;1.00;99.90;;;;;;7394479;19;20787;-80
2021/11/28 04:18:10;;;;;;;4.05;3.65;;;0.90;99.90;;;;;;7389491;19;20425;-81
2021/11/28 04:20:37;;;;;;;4.40;4.00;;;0.80;99.90;;;;;;7392606;19;20375;-82
2021/11/28 04:23:02;;;;;;;4.30;3.90;;;0.80;99.90;;;;;;7392163;19;20759;-79
2021/11/28 04:25:28;;;;;;;5.37;4.87;;;0.80;99.90;;;;;;7387665;19;20325;-81
2021/11/28 04:27:54;;;;;;;5.53;4.20;;;0.80;99.90;;;;;;7391670;19;20311;-80
2021/11/28 04:30:20;;;;;;;4.53;4.13;;;0.70;99.90;;;;;;7369403;19;20367;-79
2021/11/28 04:32:46;;;;;;;4.40;4.00;;;0.60;99.90;;;;;;7389248;19;20705;-79
2021/11/28 04:35:15;;;;;;;4.85;4.35;;;0.60;99.90;;;;;;7412225;19;21049;-82
2021/11/28 04:37:41;;;;;;;4.70;4.22;;;0.60;99.90;;;;;;7404709;19;20352;-81
2021/11/28 04:40:07;;;;;;;4.97;4.33;;;0.60;99.90;;;;;;7402568;19;20661;-79
2021/11/28 04:42:36;;;;;;;5.13;4.47;;;0.60;99.90;;;;;;7399155;19;20309;-80
2021/11/28 04:45:03;;;;;;;4.43;4.03;;;0.60;99.90;;;;;;7393410;19;20340;-80
2021/11/28 04:47:29;;;;;;;3.83;3.53;;;0.50;99.90;;;;;;7387212;19;20836;-80
2021/11/28 04:50:02;;;;;;;4.40;4.00;;;0.50;99.90;;;;;;7392977;19;20326;-79
2021/11/28 04:52:28;;;;;;;4.53;4.13;;;0.60;99.90;;;;;;7392869;19;20324;-79
2021/11/28 04:54:54;;;;;;;4.07;3.78;;;0.60;99.90;;;;;;7393059;19;20327;-80
2021/11/28 04:57:21;;;;;;;4.87;4.00;;;0.40;99.90;;;;;;7391524;19;20387;-77
2021/11/28 04:59:47;;;;;;;4.25;3.85;;;0.40;99.90;;;;;;7388971;19;20317;-78
2021/11/28 05:02:13;;;;;;;4.10;3.80;;;0.40;99.90;;;;;;7389387;19;20373;-79
2021/11/28 05:04:38;;;;;;;5.75;4.28;;;0.40;99.90;;;;;;7385207;19;20311;-79
2021/11/28 05:07:30;;;;;;;4.60;4.10;;;0.30;99.90;;;;;;7284406;19;2004371;-79
2021/11/28 05:09:57;;;;;;;3.80;3.50;;;0.20;99.90;;;;;;7360355;19;20422;-80
2021/11/28 05:12:24;;;;;;;4.63;3.95;;;0.20;99.90;;;;;;7385401;19;20313;-80
2021/11/28 05:14:51;;;;;;;4.03;3.65;;;0.20;99.90;;;;;;7382872;19;20434;-80
2021/11/28 05:17:18;;;;;;;4.63;3.85;;;0.20;99.90;;;;;;7385454;19;20323;-79
2021/11/28 05:19:52;;;;;;;4.43;4.03;;;0.20;99.90;;;;;;7363775;19;20290;-79
2021/11/28 05:22:23;;;;;;;5.63;5.10;;;0.10;99.90;;;;;;7381632;19;20329;-78
2021/11/28 05:24:52;;;;;;;11.18;9.98;;;0.00;99.90;;;;;;7381764;19;20321;-79
2021/11/28 05:27:20;;;;;;;5.60;5.00;;;0.00;99.90;;;;;;7383711;19;20313;-78
2021/11/28 05:29:46;;;;;;;4.10;3.70;;;0.00;99.90;;;;;;7382839;19;20722;-78
2021/11/28 05:32:13;;;;;;;4.40;4.00;;;0.00;99.90;;;;;;7383852;19;20351;-78
2021/11/28 05:35:14;;;;;;;4.60;3.80;;;0.00;99.90;;;;;;7277729;19;2004531;-80
2021/11/28 05:38:02;;;;;;;4.28;3.85;;;0.00;99.90;;;;;;7281034;19;2004299;-78
2021/11/28 05:40:27;;;;;;;4.03;3.63;;;-0.10;99.90;;;;;;7384835;19;20312;-77
2021/11/28 05:42:56;;;;;;;3.33;3.08;;;-0.10;99.90;;;;;;7384953;19;20325;-77
2021/11/28 05:45:24;;;;;;;4.50;4.10;;;-0.10;99.90;;;;;;7381645;19;20313;-82
2021/11/28 05:47:55;;;;;;;4.10;3.70;;;-0.20;99.90;;;;;;7384044;19;20388;-79
2021/11/28 05:50:47;;;;;;;3.72;3.33;;;-0.20;99.90;;;;;;7396532;19;23200;-79
2021/11/28 05:53:15;;;;;;;3.70;3.40;;;-0.20;99.90;;;;;;7391834;19;20341;-79
2021/11/28 05:55:42;;;;;;;3.58;3.28;;;-0.20;99.90;;;;;;7382586;19;20300;-80
2021/11/28 05:58:08;;;;;;;3.97;3.67;;;-0.30;99.90;;;;;;7382406;19;20340;-80
2021/11/28 06:00:34;;;;;;;5.03;4.32;;;-0.40;99.90;;;;;;7380716;19;20401;-81
2021/11/28 06:03:02;;;;;;;4.03;3.72;;;-0.40;99.90;;;;;;7382579;19;20356;-79
2021/11/28 06:05:51;;;;;;;3.85;3.55;;;-0.40;99.90;;;;;;7280996;19;2004493;-81
2021/11/28 06:08:36;;;;;;;4.03;3.63;;;-0.50;99.90;;;;;;7379684;19;20404;-79
2021/11/28 06:11:05;;;;;;;3.90;3.60;;;-0.50;99.90;;;;;;7383321;19;20308;-80
2021/11/28 06:13:31;;;;;;;5.50;3.43;;;-0.50;99.90;;;;;;7385176;19;20384;-79
2021/11/28 06:16:15;;;;;;;3.58;3.25;;;-0.50;99.90;;;;;;7282388;19;2004598;-80
2021/11/28 06:18:58;;;;;;;3.40;3.10;;;-0.60;99.90;;;;;;7375853;19;20336;-81
2021/11/28 06:21:43;;;;;;;3.60;3.30;;;-0.60;99.90;;;;;;7385154;19;20332;-79
2021/11/28 06:24:16;;;;;;;4.15;3.38;;;-0.60;99.90;;;;;;7380589;19;20320;-79
2021/11/28 06:26:45;;;;;;;3.70;3.40;;;-0.60;99.90;;;;;;7382866;19;20654;-79
2021/11/28 06:29:11;;;;;;;4.10;3.57;;;-0.60;99.90;;;;;;7381070;19;20340;-80
2021/11/28 06:31:37;;;;;;;3.90;3.45;;;-0.70;99.90;;;;;;7381401;19;20344;-81
2021/11/28 06:34:18;;;;;;;3.40;3.20;;;-0.70;99.90;;;;;;7383044;19;20356;-82
2021/11/28 06:37:02;;;;;;;4.20;3.80;;;-0.70;99.90;;;;;;7378788;19;20308;-80
2021/11/28 06:39:48;;;;;;;4.18;3.78;;;-0.80;99.90;;;;;;7283920;19;2004576;-80
2021/11/28 06:42:29;;;;;;;3.60;3.10;;;-0.80;99.90;;;;;;7381333;19;20320;-80
2021/11/28 06:44:55;;;;;;;3.15;2.88;;;-1.00;99.90;;;;;;7386050;19;20308;-79
2021/11/28 06:47:22;;;;;;;3.35;3.05;;;-1.00;99.90;;;;;;7382614;19;20385;-79
2021/11/28 06:49:50;;;;;;;3.92;3.63;;;-1.00;99.90;;;;;;7384215;19;20345;-80
2021/11/28 06:52:45;;;;;;;3.83;3.53;;;-1.00;99.90;;;;;;7382162;19;20899;-81
2021/11/28 06:55:39;;;;;;;3.65;3.35;;;-1.00;99.90;;;;;;7280945;19;2004701;-79
2021/11/28 06:58:29;;;;;;;4.53;4.13;;;-1.10;99.90;;;;;;7377566;19;20316;-79
2021/11/28 07:00:55;;;;;;;3.38;3.10;;;-1.20;99.90;;;;;;7383150;19;20316;-79
2021/11/28 07:03:21;;;;;;;4.15;3.80;;;-1.20;99.90;;;;;;7384949;19;20330;-80
2021/11/28 07:06:10;;;;;;;3.77;3.47;;;-1.20;99.90;;;;;;7284078;19;2004529;-79
2021/11/28 07:08:43;;;;;;;3.55;3.10;;;-1.30;99.90;;;;;;7391526;19;20328;-81
2021/11/28 07:11:08;;;;;;;3.80;3.42;;;-1.30;99.90;;;;;;7381743;19;20361;-80
2021/11/28 07:13:35;;;;;;;4.13;3.80;;;-1.30;99.90;;;;;;7389816;19;20348;-81
2021/11/28 07:16:01;;;;;;;4.33;3.93;;;-1.30;99.90;;;;;;7389257;19;20325;-79
2021/11/28 07:18:41;;;;;;;4.03;3.55;;;-1.40;99.90;;;;;;7284931;19;2004774;-80
2021/11/28 07:21:07;;;;;;;6.95;3.83;;;-1.20;99.90;;;;;;7364618;19;20250;-78
2021/11/28 07:23:32;;;;;;;6.18;5.57;;;-1.40;99.90;;;;;;7383100;19;20772;-78
2021/11/28 07:26:01;;;;;;;7.88;6.53;;;-1.40;99.90;;;;;;7381753;19;20304;-78
2021/11/28 07:28:31;;;;;;;9.40;7.10;;;-1.50;99.90;;;;;;7382065;19;20329;-79
2021/11/28 07:30:57;;;;;;;8.73;7.00;;;-1.40;99.90;;;;;;7382379;19;20847;-81
2021/11/28 07:33:41;;;;;;;6.72;6.03;;;-1.40;99.90;;;;;;7388412;19;20799;-79
2021/11/28 07:36:31;;;;;;;6.47;5.85;;;-1.30;99.90;;;;;;7283557;19;2004434;-78
2021/11/28 07:39:00;;;;;;;5.28;4.88;;;-1.30;99.90;;;;;;7384296;19;20316;-79
2021/11/28 07:41:25;;;;;;;5.30;4.80;;;-1.30;99.90;;;;;;7384637;19;20842;-80
2021/11/28 07:43:57;;;;;;;5.40;4.90;;;-1.30;99.90;;;;;;7382399;19;20431;-80
2021/11/28 07:46:41;;;;;;;5.83;5.30;;;-1.10;99.90;;;;;;7385723;19;20403;-79
2021/11/28 07:49:15;;;;;;;5.47;4.82;;;-1.20;99.90;;;;;;7384695;19;20356;-79
2021/11/28 07:51:41;;;;;;;5.88;5.28;;;-1.20;99.90;;;;;;7383378;19;20339;-79
2021/11/28 07:54:13;;;;;;;6.65;5.72;;;-1.10;99.90;;;;;;7386798;19;20308;-78
2021/11/28 07:56:39;;;;;;;5.18;4.68;;;-1.10;99.90;;;;;;7385931;19;20378;-79
2021/11/28 07:59:37;;;;;;;4.77;4.20;;;-1.10;99.90;;;;;;7280289;19;2004537;-80
2021/11/28 08:02:07;;;;;;;5.38;4.63;;;-1.00;99.90;;;;;;7384793;19;20419;-80
2021/11/28 08:04:42;;;;;;;4.95;4.45;;;-0.90;99.90;;;;;;7386693;19;20332;-78
2021/11/28 08:07:27;;;;;;;4.78;4.30;;;-0.90;99.90;;;;;;7285031;19;2004397;-79
2021/11/28 08:10:07;;;;;;;6.35;4.78;;;-0.90;99.90;;;;;;7280831;19;2004524;-78
2021/11/28 08:12:33;;;;;;;8.73;4.63;;;-0.80;99.90;;;;;;7392857;19;20312;-82
2021/11/28 08:14:59;;;;;;;4.95;4.45;;;-0.80;99.90;;;;;;7369066;19;21046;-81
2021/11/28 08:17:24;;;;;;;6.27;4.57;;;-0.70;99.90;;;;;;7393718;19;20335;-81
2021/11/28 08:19:52;;;;;;;4.60;4.20;;;-0.60;99.90;;;;;;7404744;19;20360;-80
2021/11/28 08:22:18;;;;;;;4.47;4.03;;;-0.50;99.90;;;;;;7398614;19;20320;-81
2021/11/28 08:24:44;;;;;;;5.07;4.30;;;-0.50;99.90;;;;;;7401876;19;20301;-79
2021/11/28 08:27:09;;;;;;;4.97;4.57;;;-0.40;99.90;;;;;;7399498;19;20411;-79
2021/11/28 08:29:38;;;;;;;4.67;4.17;;;-0.40;99.90;;;;;;7403570;19;20337;-81
2021/11/28 08:32:25;;;;;;;5.60;5.10;;;-0.30;99.90;;;;;;7399401;19;20344;-82
2021/11/28 08:35:09;;;;;;;4.65;4.25;;;-0.30;99.90;;;;;;7402847;19;20329;-81
2021/11/28 08:37:45;;;;;;;4.47;4.03;;;-0.20;99.90;;;;;;7403025;19;20394;-83
2021/11/28 08:40:16;;;;;;;4.07;3.43;;;-0.20;99.90;;;;;;7398172;19;20311;-80
2021/11/28 08:42:42;;;;;;;4.05;3.75;;;0.00;99.90;;;;;;7405029;19;20320;-82
2021/11/28 08:45:10;;;;;;;5.25;4.75;;;0.10;99.90;;;;;;7391556;19;20340;-80
2021/11/28 08:47:36;;;;;;;4.55;4.15;;;0.10;99.90;;;;;;7383945;19;20344;-80
2021/11/28 08:50:03;;;;;;;5.10;4.63;;;0.10;99.90;;;;;;7384318;19;20337;-80
2021/11/28 08:52:30;;;;;;;5.13;4.35;;;0.10;99.90;;;;;;7385928;19;20356;-80
2021/11/28 08:54:56;;;;;;;3.83;3.47;;;0.20;99.90;;;;;;7387776;19;20348;-81
2021/11/28 08:57:22;;;;;;;4.10;3.78;;;0.30;99.90;;;;;;7386712;19;21138;-79
2021/11/28 08:59:49;;;;;;;3.65;3.35;;;0.40;99.90;;;;;;7388385;19;20303;-79
2021/11/28 09:02:16;;;;;;;4.72;4.25;;;0.40;99.90;;;;;;7388152;19;20301;-80
2021/11/28 09:04:42;;;;;;;4.60;4.20;;;0.50;99.90;;;;;;7387594;19;21010;-80
2021/11/28 09:07:07;;;;;;;4.63;4.23;;;0.60;99.90;;;;;;7390149;19;20335;-80
2021/11/28 09:09:35;;;;;;;5.43;4.93;;;0.60;99.90;;;;;;7393538;19;20674;-80
2021/11/28 09:12:02;;;;;;;5.30;4.80;;;0.60;99.90;;;;;;7390756;19;20344;-80
2021/11/28 09:14:28;;;;;;;5.03;4.63;;;0.70;99.90;;;;;;7388664;19;20317;-79
2021/11/28 09:16:54;;;;;;;4.23;3.93;;;0.70;99.90;;;;;;7388999;19;20730;-80
2021/11/28 09:19:39;;;;;;;4.70;4.30;;;0.80;99.90;;;;;;7389802;19;20305;-81
2021/11/28 09:22:06;;;;;;;4.32;3.92;;;0.80;99.90;;;;;;7285861;19;2006375;-79
2021/11/28 09:24:38;;;;;;;4.57;4.05;;;0.80;99.90;;;;;;7385814;19;20297;-80
2021/11/28 09:27:13;;;;;;;4.65;4.25;;;0.80;99.90;;;;;;7387520;19;20325;-79
2021/11/28 09:29:41;;;;;;;9.25;8.23;;;0.90;99.90;;;;;;7383713;19;20340;-80
2021/11/28 09:32:07;;;;;;;15.75;10.73;;;0.90;99.90;;;;;;7386019;19;20341;-79
2021/11/28 09:34:33;;;;;;;8.18;5.95;;;0.90;99.90;;;;;;7396021;19;20309;-80
2021/11/28 09:37:02;;;;;;;8.00;7.10;;;1.00;99.90;;;;;;7397223;19;20361;-82
2021/11/28 09:39:28;;;;;;;10.05;7.38;;;1.00;99.90;;;;;;7398976;19;20896;-79
2021/11/28 09:42:05;;;;;;;5.78;5.28;;;1.10;99.90;;;;;;7389268;19;20323;-78
2021/11/28 09:44:32;;;;;;;5.53;5.03;;;1.10;99.90;;;;;;7281471;19;2007015;-77
2021/11/28 09:46:58;;;;;;;4.63;4.22;;;1.10;99.90;;;;;;7384185;19;20439;-79
2021/11/28 09:49:25;;;;;;;5.67;5.17;;;1.10;99.90;;;;;;7383042;19;20445;-81
2021/11/28 09:51:51;;;;;;;5.03;4.47;;;1.20;99.90;;;;;;7382832;19;20320;-78
2021/11/28 09:54:17;;;;;;;6.13;4.70;;;1.30;99.90;;;;;;7381990;19;20321;-78
2021/11/28 09:56:43;;;;;;;5.68;5.18;;;1.30;99.90;;;;;;7381125;19;20339;-80
2021/11/28 09:59:10;;;;;;;5.10;4.40;;;1.40;99.90;;;;;;7379363;19;20376;-81
2021/11/28 10:01:35;;;;;;;7.00;5.53;;;1.40;99.90;;;;;;7380540;19;20385;-78
2021/11/28 10:04:02;;;;;;;6.13;5.53;;;1.50;99.90;;;;;;7380208;19;20844;-81
2021/11/28 10:06:28;;;;;;;8.20;7.40;;;1.50;99.90;;;;;;7379480;19;20361;-78
2021/11/28 10:08:57;;;;;;;11.07;8.35;;;1.50;99.90;;;;;;7378457;19;20336;-80
2021/11/28 10:11:30;;;;;;;15.95;10.27;;;1.60;99.90;;;;;;7379289;19;20364;-79
2021/11/28 10:13:56;;;;;;;15.93;10.15;;;1.60;99.90;;;;;;7277750;19;2020340;-79
2021/11/28 10:16:22;;;;;;;5.23;4.67;;;1.60;99.90;;;;;;7378332;19;20368;-79
2021/11/28 10:18:47;;;;;;;8.57;7.68;;;1.60;99.90;;;;;;7377923;19;20323;-81
2021/11/28 10:21:13;;;;;;;5.57;4.63;;;1.70;99.90;;;;;;7381540;19;20312;-81
2021/11/28 10:24:06;;;;;;;7.27;6.53;;;1.70;99.90;;;;;;7379825;19;20690;-80
2021/11/28 10:26:32;;;;;;;4.60;4.07;;;1.80;99.90;;;;;;7278083;19;2004529;-81
2021/11/28 10:29:07;;;;;;;4.80;4.05;;;1.90;99.90;;;;;;7380612;19;20356;-81
2021/11/28 10:32:02;;;;;;;3.77;3.43;;;2.00;99.90;;;;;;7383776;19;20372;-79
2021/11/28 10:34:36;;;;;;;7.33;5.77;;;2.10;99.90;;;;;;7280697;19;2020219;-80
2021/11/28 10:37:02;;;;;;;4.32;3.92;;;2.10;99.90;;;;;;7282252;19;2009256;-82
2021/11/28 10:39:27;;;;;;;4.05;3.50;;;2.10;99.90;;;;;;7382992;19;20336;-79
2021/11/28 10:41:55;;;;;;;3.50;3.20;;;2.10;99.90;;;;;;7382463;19;20384;-80
2021/11/28 10:44:22;;;;;;;4.32;3.83;;;2.20;99.90;;;;;;7383944;19;20310;-80
2021/11/28 10:46:48;;;;;;;4.70;4.20;;;2.20;99.90;;;;;;7386542;19;20440;-80
2021/11/28 10:49:19;;;;;;;5.93;5.43;;;2.20;99.90;;;;;;7378998;19;20340;-82
2021/11/28 10:51:46;;;;;;;4.70;4.30;;;2.30;99.90;;;;;;7390819;19;20330;-82
2021/11/28 10:54:22;;;;;;;4.55;4.15;;;2.20;99.90;;;;;;7387739;19;20658;-83
2021/11/28 10:56:48;;;;;;;5.27;4.80;;;2.30;99.90;;;;;;7388200;19;20341;-80
2021/11/28 10:59:21;;;;;;;5.38;4.10;;;2.30;99.90;;;;;;7383025;19;20989;-81
2021/11/28 11:01:47;;;;;;;4.63;4.22;;;2.30;99.90;;;;;;7383899;19;20669;-80
2021/11/28 11:04:20;;;;;;;6.25;5.63;;;2.40;99.90;;;;;;7379556;19;20332;-81
2021/11/28 11:07:07;;;;;;;6.18;4.90;;;2.40;99.90;;;;;;7357463;19;20457;-82
2021/11/28 11:09:46;;;;;;;5.10;4.60;;;2.40;99.90;;;;;;7385617;19;20308;-79
2021/11/28 11:12:23;;;;;;;5.00;4.50;;;2.40;99.90;;;;;;7282160;19;2007984;-81
2021/11/28 11:14:52;;;;;;;4.10;3.70;;;2.40;99.90;;;;;;7385834;19;20368;-83
2021/11/28 11:17:21;;;;;;;4.85;4.32;;;2.50;99.90;;;;;;7383544;19;20323;-80
2021/11/28 11:19:51;;;;;;;5.32;4.07;;;2.50;99.90;;;;;;7378973;19;20353;-81
2021/11/28 11:22:26;;;;;;;3.93;3.63;;;2.50;99.90;;;;;;7381496;19;20343;-80
2021/11/28 11:25:00;;;;;;;4.72;4.13;;;2.60;99.90;;;;;;7381945;19;20681;-83
2021/11/28 11:27:37;;;;;;;4.65;4.25;;;2.60;99.90;;;;;;7280895;19;2004423;-82
2021/11/28 11:30:08;;;;;;;5.70;5.10;;;2.70;99.90;;;;;;7278197;19;2007173;-81
2021/11/28 11:33:08;;;;;;;4.37;3.97;;;2.80;99.90;;;;;;7384526;19;20349;-81
2021/11/28 11:35:43;;;;;;;4.60;4.20;;;2.80;99.90;;;;;;7276611;19;2006808;-81
2021/11/28 11:38:16;;;;;;;4.68;4.25;;;2.90;99.90;;;;;;7378710;19;20302;-81
2021/11/28 11:40:45;;;;;;;6.68;5.30;;;2.90;99.90;;;;;;7384323;19;20713;-81
2021/11/28 11:43:14;;;;;;;4.65;4.25;;;2.80;99.90;;;;;;7384225;19;20347;-83
2021/11/28 11:45:41;;;;;;;4.90;4.50;;;2.70;99.90;;;;;;7380258;19;20907;-84
2021/11/28 11:48:08;;;;;;;7.03;5.47;;;2.70;99.90;;;;;;7384619;19;20355;-81
2021/11/28 11:50:35;;;;;;;7.63;6.37;;;2.70;99.90;;;;;;7381715;19;20362;-81
2021/11/28 11:53:06;;;;;;;7.90;6.38;;;2.70;99.90;;;;;;7384030;19;20313;-81
2021/11/28 11:55:37;;;;;;;6.38;5.78;;;2.60;99.90;;;;;;7385104;19;20368;-80
2021/11/28 11:58:30;;;;;;;8.57;5.70;;;2.60;99.90;;;;;;7388504;19;20313;-81
2021/11/28 12:01:06;;;;;;;5.35;4.85;;;2.50;99.90;;;;;;7388713;19;20320;-80
2021/11/28 12:03:50;;;;;;;4.60;4.20;;;2.50;99.90;;;;;;7392361;19;20907;-82
2021/11/28 12:06:17;;;;;;;5.05;4.55;;;2.50;99.90;;;;;;7295146;19;2004443;-81
2021/11/28 12:08:50;;;;;;;4.68;4.20;;;2.50;99.90;;;;;;7394996;19;20345;-81
2021/11/28 12:11:16;;;;;;;6.90;5.82;;;2.50;99.90;;;;;;7393653;19;20325;-80
2021/11/28 12:13:45;;;;;;;7.90;7.13;;;2.50;99.90;;;;;;7390812;19;20357;-80
2021/11/28 12:16:11;;;;;;;4.30;3.90;;;2.60;99.90;;;;;;7388442;19;20465;-81
2021/11/28 12:18:42;;;;;;;5.97;4.82;;;2.60;99.90;;;;;;7394704;19;20364;-80
2021/11/28 12:21:11;;;;;;;5.00;4.50;;;2.60;99.90;;;;;;7386474;19;20435;-80
2021/11/28 12:23:49;;;;;;;4.95;4.38;;;2.60;99.90;;;;;;7388472;19;20401;-81
2021/11/28 12:26:28;;;;;;;5.45;4.93;;;2.60;99.90;;;;;;7283178;19;2004533;-78
2021/11/28 12:28:55;;;;;;;4.80;4.30;;;2.60;99.90;;;;;;7264363;19;2004434;-80
2021/11/28 12:31:26;;;;;;;4.53;4.13;;;2.60;99.90;;;;;;7388079;19;20375;-80
2021/11/28 12:33:52;;;;;;;4.78;4.38;;;2.60;99.90;;;;;;7386612;19;20354;-80
2021/11/28 12:36:36;;;;;;;4.80;4.40;;;2.60;99.90;;;;;;7387151;19;20344;-79
2021/11/28 12:39:06;;;;;;;4.75;4.13;;;2.60;99.90;;;;;;7282766;19;2006665;-81
2021/11/28 12:41:54;;;;;;;6.65;6.05;;;2.60;99.90;;;;;;7382163;19;20950;-81
2021/11/28 12:44:24;;;;;;;4.93;4.43;;;2.60;99.90;;;;;;7282633;19;2004456;-79
2021/11/28 12:46:57;;;;;;;4.90;4.50;;;2.60;99.90;;;;;;7384224;19;20328;-80
2021/11/28 12:49:34;;;;;;;6.32;4.70;;;2.60;99.90;;;;;;7388962;19;20336;-81
2021/11/28 12:52:26;;;;;;;5.03;4.53;;;2.70;99.90;;;;;;7284129;19;2005225;-82
2021/11/28 12:55:04;;;;;;;5.28;4.78;;;2.70;99.90;;;;;;7281423;19;2004415;-81
2021/11/28 12:57:33;;;;;;;5.35;4.85;;;2.80;99.90;;;;;;7388379;19;20332;-80
2021/11/28 13:00:17;;;;;;;4.88;4.47;;;2.80;99.90;;;;;;7384721;19;20325;-82
2021/11/28 13:02:51;;;;;;;6.90;5.30;;;2.80;99.90;;;;;;7387759;19;20348;-82
2021/11/28 13:05:44;;;;;;;8.57;7.03;;;2.80;99.90;;;;;;7389565;19;20347;-80
2021/11/28 13:08:13;;;;;;;5.90;5.22;;;2.80;99.90;;;;;;7382713;19;20324;-81
2021/11/28 13:10:46;;;;;;;6.53;5.60;;;2.80;99.90;;;;;;7340798;19;20341;-80
2021/11/28 13:13:42;;;;;;;7.10;5.45;;;2.80;99.90;;;;;;7384383;19;20340;-81
2021/11/28 13:16:27;;;;;;;7.05;5.20;;;2.80;99.90;;;;;;7276866;19;2004322;-81